Time;durP1;ratioP1;P1;durP2;ratioP2;P2;SDS_P1;SDS_P2;PMS_P1;PMS_P2;Temp;Humidity;BMP_temperature;BMP_pressure;BME280_temperature;BME280_humidity;BME280_pressure;Samples;Min_cycle;Max_cycle;Signal;HPM_P1;HPM_P2
2023/07/20 00:00:53;;;;;;;2.25;1.58;;;15.20;99.90;;;;;;5019336;28;20478;-77
2023/07/20 00:03:24;;;;;;;2.17;1.73;;;15.20;99.90;;;;;;5018096;28;20414;-76
2023/07/20 00:05:51;;;;;;;3.97;1.73;;;15.20;99.90;;;;;;5001141;28;20592;-76
2023/07/20 00:08:18;;;;;;;3.13;1.90;;;15.20;99.90;;;;;;5020355;28;20740;-77
2023/07/20 00:10:44;;;;;;;2.60;2.40;;;15.20;99.90;;;;;;5021194;28;20120;-77
2023/07/20 00:13:11;;;;;;;1.77;1.67;;;15.20;99.90;;;;;;5018376;28;20045;-77
2023/07/20 00:15:37;;;;;;;2.53;1.88;;;15.20;99.90;;;;;;4999834;28;20072;-77
2023/07/20 00:18:04;;;;;;;2.15;2.05;;;15.20;99.90;;;;;;5020427;28;20046;-77
2023/07/20 00:20:30;;;;;;;2.85;2.65;;;15.20;99.90;;;;;;5020821;28;20481;-76
2023/07/20 00:22:57;;;;;;;2.53;2.08;;;15.20;99.90;;;;;;5001461;28;20176;-77
2023/07/20 00:25:24;;;;;;;3.67;2.13;;;15.20;99.90;;;;;;5000196;28;20056;-76
2023/07/20 00:27:51;;;;;;;2.78;2.58;;;15.20;99.90;;;;;;5017338;28;20454;-77
2023/07/20 00:30:18;;;;;;;4.68;2.90;;;15.20;99.90;;;;;;5020109;28;20068;-77
2023/07/20 00:32:44;;;;;;;2.72;2.53;;;15.80;99.90;;;;;;5020866;28;20099;-78
2023/07/20 00:35:11;;;;;;;3.47;3.17;;;15.20;99.90;;;;;;5017373;28;20038;-77
2023/07/20 00:37:37;;;;;;;3.30;3.00;;;15.20;99.90;;;;;;5017605;28;20556;-79
2023/07/20 00:40:07;;;;;;;3.50;3.17;;;15.20;99.90;;;;;;5001488;28;20163;-76
2023/07/20 00:42:33;;;;;;;3.10;2.90;;;15.10;99.90;;;;;;5020171;28;20060;-76
2023/07/20 00:44:59;;;;;;;3.22;2.90;;;15.30;99.90;;;;;;5019379;28;20052;-77
2023/07/20 00:47:26;;;;;;;3.88;3.42;;;15.10;99.90;;;;;;5017108;28;20042;-76
2023/07/20 00:49:52;;;;;;;4.07;2.47;;;15.00;99.90;;;;;;5016695;28;20422;-79
2023/07/20 00:52:20;;;;;;;2.75;2.55;;;15.00;99.90;;;;;;5020458;28;20092;-77
2023/07/20 00:54:46;;;;;;;2.35;2.25;;;15.00;99.90;;;;;;5020638;28;20386;-77
2023/07/20 00:57:15;;;;;;;2.90;2.80;;;15.00;99.90;;;;;;5017078;28;20060;-77
2023/07/20 00:59:41;;;;;;;2.60;2.40;;;15.10;99.90;;;;;;5017505;28;20068;-76
2023/07/20 01:02:07;;;;;;;3.50;3.20;;;15.10;99.90;;;;;;5005944;28;20046;-79
2023/07/20 01:04:34;;;;;;;4.30;2.47;;;15.10;99.90;;;;;;5009903;28;20041;-78
2023/07/20 01:07:20;;;;;;;3.47;3.17;;;15.10;99.90;;;;;;5020775;28;20072;-78
2023/07/20 01:10:12;;;;;;;2.97;2.72;;;15.10;99.90;;;;;;5016025;28;20056;-79
2023/07/20 01:12:47;;;;;;;3.00;2.65;;;15.00;99.90;;;;;;4994314;28;20041;-78
2023/07/20 01:15:13;;;;;;;3.05;2.75;;;14.90;99.90;;;;;;5002043;28;20453;-78
2023/07/20 01:17:39;;;;;;;2.85;2.65;;;14.90;99.90;;;;;;5002630;28;20144;-78
2023/07/20 01:20:10;;;;;;;4.18;3.88;;;14.90;99.90;;;;;;5018349;28;20052;-79
2023/07/20 01:23:13;;;;;;;2.83;2.63;;;14.80;99.90;;;;;;5016870;28;20088;-80
2023/07/20 01:26:04;;;;;;;2.85;2.65;;;14.80;99.90;;;;;;5011210;28;20410;-79
2023/07/20 01:28:51;;;;;;;4.50;3.65;;;14.80;99.90;;;;;;5010362;28;20050;-80
2023/07/20 01:31:30;;;;;;;3.40;3.20;;;14.80;99.90;;;;;;5009659;28;20049;-77
2023/07/20 01:34:01;;;;;;;3.03;2.83;;;14.80;99.90;;;;;;5019733;28;20437;-78
2023/07/20 01:36:34;;;;;;;2.83;2.65;;;14.70;99.90;;;;;;4999099;28;20049;-79
2023/07/20 01:39:00;;;;;;;4.93;3.13;;;14.70;99.90;;;;;;5016467;28;20552;-77
2023/07/20 01:41:26;;;;;;;2.97;2.42;;;14.70;99.90;;;;;;5002680;28;20096;-80
2023/07/20 01:43:51;;;;;;;3.60;3.30;;;14.60;99.90;;;;;;5023653;28;20266;-77
2023/07/20 01:46:17;;;;;;;2.90;2.50;;;15.10;99.90;;;;;;5002815;28;20100;-78
2023/07/20 01:48:42;;;;;;;2.42;2.33;;;14.50;99.90;;;;;;5020380;28;20037;-77
2023/07/20 01:51:08;;;;;;;2.40;2.17;;;14.50;99.90;;;;;;5022235;28;20045;-77
2023/07/20 01:53:34;;;;;;;2.35;2.15;;;14.50;99.90;;;;;;5005718;28;20698;-80
2023/07/20 01:55:59;;;;;;;3.05;2.45;;;14.50;99.90;;;;;;5005539;28;20559;-77
2023/07/20 01:58:25;;;;;;;2.72;2.60;;;14.50;99.90;;;;;;5023918;28;20346;-78
2023/07/20 02:00:51;;;;;;;3.10;2.90;;;14.40;99.90;;;;;;5001093;28;20090;-78
2023/07/20 02:03:16;;;;;;;2.92;2.60;;;14.40;99.90;;;;;;4987153;28;20041;-78
2023/07/20 02:05:43;;;;;;;4.85;2.78;;;14.30;99.90;;;;;;5002315;28;20037;-76
2023/07/20 02:08:09;;;;;;;3.15;2.30;;;14.30;99.90;;;;;;5003535;28;20049;-77
2023/07/20 02:10:35;;;;;;;2.25;2.13;;;14.30;99.90;;;;;;5023518;28;20041;-75
2023/07/20 02:13:01;;;;;;;2.90;2.70;;;14.20;99.90;;;;;;4997299;28;20402;-78
2023/07/20 02:15:27;;;;;;;3.90;2.47;;;14.20;99.90;;;;;;5005327;28;20393;-77
2023/07/20 02:17:53;;;;;;;3.60;2.53;;;14.20;99.90;;;;;;5023408;28;20045;-79
2023/07/20 02:20:19;;;;;;;3.13;2.88;;;14.20;99.90;;;;;;5019901;28;20042;-78
2023/07/20 02:22:45;;;;;;;2.03;1.92;;;14.00;99.90;;;;;;5019896;28;20042;-79
2023/07/20 02:25:11;;;;;;;2.40;2.20;;;14.00;99.90;;;;;;5021591;28;20504;-78
2023/07/20 02:27:37;;;;;;;2.90;2.20;;;14.20;99.90;;;;;;5022922;28;20558;-76
2023/07/20 02:30:05;;;;;;;2.42;2.22;;;14.00;99.90;;;;;;5022252;28;20054;-76
2023/07/20 02:32:32;;;;;;;2.30;2.10;;;14.00;99.90;;;;;;5020188;28;20072;-75
2023/07/20 02:34:58;;;;;;;2.03;1.92;;;14.00;99.90;;;;;;5019086;28;20034;-76
2023/07/20 02:37:24;;;;;;;2.40;2.20;;;14.00;99.90;;;;;;5023148;28;20060;-75
2023/07/20 02:39:50;;;;;;;3.50;2.38;;;14.00;99.90;;;;;;5004885;28;20497;-77
2023/07/20 02:42:15;;;;;;;3.40;2.58;;;13.90;99.90;;;;;;5020780;28;20085;-76
2023/07/20 02:44:41;;;;;;;3.40;2.60;;;13.90;99.90;;;;;;5029718;28;20132;-78
2023/07/20 02:47:06;;;;;;;4.15;3.03;;;13.90;99.90;;;;;;5023699;28;20053;-78
2023/07/20 02:49:32;;;;;;;2.53;2.42;;;14.10;99.90;;;;;;5004769;28;20121;-76
2023/07/20 02:51:58;;;;;;;2.92;2.72;;;14.20;99.90;;;;;;5022674;28;20580;-77
2023/07/20 02:54:24;;;;;;;2.78;2.58;;;13.80;99.90;;;;;;5014173;28;20041;-78
2023/07/20 02:56:49;;;;;;;2.45;2.33;;;13.80;99.90;;;;;;5006383;28;20037;-76
2023/07/20 02:59:15;;;;;;;3.47;2.75;;;13.90;99.90;;;;;;5020823;28;20053;-77
2023/07/20 03:01:43;;;;;;;3.67;2.03;;;13.80;99.90;;;;;;5005748;28;20621;-78
2023/07/20 03:04:12;;;;;;;4.15;1.75;;;13.70;99.90;;;;;;5003752;28;20061;-77
2023/07/20 03:06:37;;;;;;;2.22;1.63;;;13.80;99.90;;;;;;5019385;28;20081;-77
2023/07/20 03:09:04;;;;;;;2.15;2.00;;;13.80;99.90;;;;;;5018830;28;20563;-78
2023/07/20 03:11:29;;;;;;;4.28;2.10;;;13.80;99.90;;;;;;5010655;28;20041;-79
2023/07/20 03:13:55;;;;;;;2.22;2.03;;;13.70;99.90;;;;;;5018837;28;20046;-76
2023/07/20 03:16:24;;;;;;;1.90;1.80;;;13.80;99.90;;;;;;5009348;28;20045;-79
2023/07/20 03:18:50;;;;;;;2.03;1.83;;;13.70;99.90;;;;;;5000508;28;20042;-78
2023/07/20 03:21:16;;;;;;;2.70;1.70;;;13.70;99.90;;;;;;5021299;28;20494;-77
2023/07/20 03:23:42;;;;;;;3.45;1.80;;;14.70;99.90;;;;;;5021572;28;20549;-77
2023/07/20 03:26:08;;;;;;;2.33;2.10;;;13.70;99.90;;;;;;5022225;28;20081;-78
2023/07/20 03:28:34;;;;;;;6.32;1.50;;;13.80;99.90;;;;;;5001008;28;20049;-78
2023/07/20 03:31:00;;;;;;;1.65;1.48;;;13.70;99.90;;;;;;5017801;28;20078;-79
2023/07/20 03:33:27;;;;;;;3.53;1.58;;;13.70;99.90;;;;;;5003623;28;20080;-76
2023/07/20 03:35:53;;;;;;;2.13;1.50;;;13.60;99.90;;;;;;5021847;28;20048;-78
2023/07/20 03:38:20;;;;;;;3.10;2.17;;;13.70;99.90;;;;;;5019554;28;20305;-78
2023/07/20 03:40:52;;;;;;;1.65;1.58;;;14.00;99.90;;;;;;5023451;28;20509;-77
2023/07/20 03:43:18;;;;;;;2.10;1.70;;;14.00;99.90;;;;;;5020406;28;20080;-78
2023/07/20 03:45:45;;;;;;;3.65;1.92;;;14.10;99.90;;;;;;5017873;28;20085;-76
2023/07/20 03:48:11;;;;;;;2.38;1.75;;;13.60;99.90;;;;;;5001525;28;20034;-76
2023/07/20 03:50:38;;;;;;;2.25;1.90;;;13.50;99.90;;;;;;5021937;28;20042;-79
2023/07/20 03:53:03;;;;;;;3.05;2.17;;;13.50;99.90;;;;;;5020944;28;20038;-76
2023/07/20 03:55:30;;;;;;;2.08;1.63;;;13.50;99.90;;;;;;5019077;28;20111;-76
2023/07/20 03:57:55;;;;;;;4.22;2.15;;;13.40;99.90;;;;;;5018502;28;20042;-76
2023/07/20 04:00:21;;;;;;;2.08;1.98;;;13.40;99.90;;;;;;5019439;28;20072;-77
2023/07/20 04:02:47;;;;;;;2.42;2.22;;;13.40;99.90;;;;;;5021346;28;20037;-76
2023/07/20 04:05:12;;;;;;;5.03;2.13;;;14.80;99.90;;;;;;5002397;28;20160;-76
2023/07/20 04:07:38;;;;;;;1.48;1.38;;;13.30;99.90;;;;;;5017728;28;20050;-76
2023/07/20 04:10:04;;;;;;;1.88;1.50;;;13.30;99.90;;;;;;5017812;28;20504;-76
2023/07/20 04:12:29;;;;;;;1.85;1.75;;;13.30;99.90;;;;;;5020780;28;20593;-77
2023/07/20 04:14:55;;;;;;;3.20;1.70;;;13.40;99.90;;;;;;5020848;28;20041;-77
2023/07/20 04:17:21;;;;;;;4.07;1.70;;;13.30;99.90;;;;;;5019946;28;20068;-76
2023/07/20 04:19:46;;;;;;;1.80;1.70;;;14.50;99.90;;;;;;5018404;28;20144;-77
2023/07/20 04:22:15;;;;;;;1.85;1.63;;;13.30;99.90;;;;;;5018010;28;20046;-77
2023/07/20 04:24:42;;;;;;;1.75;1.60;;;13.30;99.90;;;;;;5008063;28;20452;-77
2023/07/20 04:27:08;;;;;;;2.05;1.60;;;13.30;99.90;;;;;;5011888;28;20112;-77
2023/07/20 04:29:34;;;;;;;3.97;1.80;;;13.40;99.90;;;;;;5004082;28;20041;-76
2023/07/20 04:31:59;;;;;;;3.13;1.48;;;14.00;99.90;;;;;;5021637;28;20049;-77
2023/07/20 04:34:25;;;;;;;2.13;1.85;;;13.30;99.90;;;;;;5001214;28;20129;-78
2023/07/20 04:36:51;;;;;;;2.90;1.40;;;13.30;99.90;;;;;;5017535;28;20418;-78
2023/07/20 04:39:17;;;;;;;1.90;1.80;;;13.20;99.90;;;;;;5017255;28;20076;-76
2023/07/20 04:41:42;;;;;;;3.33;1.48;;;13.30;99.90;;;;;;5020172;28;20033;-76
2023/07/20 04:44:08;;;;;;;1.60;1.50;;;13.30;99.90;;;;;;5003685;28;20103;-77
2023/07/20 04:46:33;;;;;;;3.08;1.80;;;13.30;99.90;;;;;;5018411;28;20529;-76
2023/07/20 04:48:59;;;;;;;1.88;1.77;;;13.30;99.90;;;;;;4998815;28;20046;-79
2023/07/20 04:51:25;;;;;;;1.73;1.63;;;13.20;99.90;;;;;;4992813;28;20449;-77
2023/07/20 04:53:51;;;;;;;1.83;1.70;;;13.30;99.90;;;;;;5020547;28;20041;-77
2023/07/20 04:56:17;;;;;;;3.20;2.28;;;13.30;99.90;;;;;;5019639;28;20469;-78
2023/07/20 04:58:42;;;;;;;2.85;2.55;;;13.30;99.90;;;;;;5016876;28;20048;-77
2023/07/20 05:01:08;;;;;;;3.17;2.80;;;13.20;99.90;;;;;;5017590;28;20034;-77
2023/07/20 05:03:34;;;;;;;2.50;2.33;;;13.00;99.90;;;;;;5009472;28;20117;-77
2023/07/20 05:05:59;;;;;;;2.90;2.40;;;13.20;99.90;;;;;;5002627;28;20494;-76
2023/07/20 05:08:25;;;;;;;2.67;2.42;;;13.20;99.90;;;;;;5019721;28;20041;-78
2023/07/20 05:10:51;;;;;;;3.42;2.75;;;13.20;99.90;;;;;;4998416;28;20108;-77
2023/07/20 05:13:17;;;;;;;2.55;1.85;;;13.10;99.90;;;;;;5018166;28;20034;-77
2023/07/20 05:15:42;;;;;;;3.40;2.13;;;13.10;99.90;;;;;;5017408;28;20088;-77
2023/07/20 05:18:08;;;;;;;3.78;2.58;;;13.10;99.90;;;;;;5016875;28;20038;-78
2023/07/20 05:20:35;;;;;;;3.92;2.45;;;13.10;99.90;;;;;;5001813;28;20141;-78
2023/07/20 05:23:01;;;;;;;2.60;2.25;;;13.10;99.90;;;;;;5002741;28;20045;-80
2023/07/20 05:25:27;;;;;;;2.63;2.45;;;13.60;99.90;;;;;;5018756;28;20136;-78
2023/07/20 05:27:55;;;;;;;2.30;2.10;;;13.10;99.90;;;;;;5017179;28;20565;-78
2023/07/20 05:30:21;;;;;;;3.38;2.40;;;13.00;99.90;;;;;;5016426;28;20050;-79
2023/07/20 05:32:50;;;;;;;2.45;2.25;;;13.00;99.90;;;;;;4986309;28;20096;-79
2023/07/20 05:35:17;;;;;;;2.35;1.92;;;13.10;99.90;;;;;;5020929;28;20068;-78
2023/07/20 05:37:44;;;;;;;3.45;2.30;;;13.10;99.90;;;;;;4999481;28;20115;-77
2023/07/20 05:40:12;;;;;;;2.47;2.28;;;13.10;99.90;;;;;;5016703;28;20489;-76
2023/07/20 05:42:38;;;;;;;6.80;3.78;;;13.20;99.90;;;;;;5020004;28;20046;-78
2023/07/20 05:45:04;;;;;;;5.53;3.72;;;13.80;99.90;;;;;;5019711;28;20053;-76
2023/07/20 05:47:30;;;;;;;2.63;2.08;;;13.30;99.90;;;;;;5001536;28;20053;-78
2023/07/20 05:49:56;;;;;;;3.97;1.95;;;13.30;99.90;;;;;;4998570;28;20052;-76
2023/07/20 05:52:21;;;;;;;3.72;1.70;;;13.40;99.90;;;;;;5015874;28;20076;-78
2023/07/20 05:54:47;;;;;;;2.90;1.80;;;13.40;99.90;;;;;;5019765;28;20048;-75
2023/07/20 05:57:13;;;;;;;3.15;1.58;;;13.50;99.90;;;;;;5002377;28;20046;-77
2023/07/20 05:59:40;;;;;;;2.15;1.83;;;13.60;99.90;;;;;;5019644;28;20071;-79
2023/07/20 06:02:08;;;;;;;4.47;1.90;;;14.70;99.90;;;;;;5020986;28;20053;-76
2023/07/20 06:04:33;;;;;;;5.78;1.83;;;13.70;99.90;;;;;;5020474;28;20037;-78
2023/07/20 06:06:59;;;;;;;3.28;1.80;;;13.70;99.90;;;;;;5024201;28;20049;-78
2023/07/20 06:09:25;;;;;;;2.75;1.33;;;13.80;99.90;;;;;;5010801;28;20525;-77
2023/07/20 06:11:50;;;;;;;4.65;1.60;;;13.90;99.90;;;;;;5009114;28;20045;-77
2023/07/20 06:14:16;;;;;;;4.15;1.70;;;13.90;99.90;;;;;;4998247;28;20062;-77
2023/07/20 06:16:41;;;;;;;2.65;1.08;;;14.00;99.90;;;;;;5001377;28;20052;-77
2023/07/20 06:19:07;;;;;;;2.28;1.65;;;14.00;99.90;;;;;;5020576;28;20048;-79
2023/07/20 06:21:33;;;;;;;3.83;1.60;;;14.10;99.90;;;;;;5018595;28;20034;-77
2023/07/20 06:23:58;;;;;;;2.80;1.05;;;14.20;99.90;;;;;;5016380;28;20089;-77
2023/07/20 06:26:24;;;;;;;3.50;1.27;;;14.50;99.90;;;;;;5016543;28;20532;-78
2023/07/20 06:28:50;;;;;;;5.85;1.15;;;14.30;99.90;;;;;;5020388;28;20378;-78
2023/07/20 06:31:16;;;;;;;3.95;1.17;;;14.40;99.90;;;;;;5023995;28;20045;-77
2023/07/20 06:33:42;;;;;;;2.95;0.45;;;14.40;99.90;;;;;;5020574;28;20049;-77
2023/07/20 06:36:08;;;;;;;3.13;0.80;;;14.50;99.90;;;;;;5020148;28;20044;-77
2023/07/20 06:38:33;;;;;;;3.22;0.80;;;14.60;99.90;;;;;;5002662;28;20096;-77
2023/07/20 06:40:59;;;;;;;3.10;0.70;;;14.70;99.90;;;;;;5023090;28;20034;-77
2023/07/20 06:43:24;;;;;;;3.90;1.02;;;14.70;99.90;;;;;;5008043;28;20057;-79
2023/07/20 06:45:53;;;;;;;3.03;0.63;;;14.90;99.90;;;;;;5020854;28;20068;-78
2023/07/20 06:48:19;;;;;;;6.30;0.93;;;14.80;99.90;;;;;;5018845;28;20111;-78
2023/07/20 06:50:45;;;;;;;3.20;1.73;;;14.90;99.90;;;;;;5021464;28;20049;-78
2023/07/20 06:53:11;;;;;;;7.85;4.63;;;15.00;99.90;;;;;;5022947;28;20528;-77
2023/07/20 06:55:36;;;;;;;1.23;1.05;;;15.00;99.90;;;;;;5021182;28;20401;-77
2023/07/20 06:58:02;;;;;;;2.70;0.82;;;15.00;99.90;;;;;;5019621;28;20571;-79
2023/07/20 07:00:28;;;;;;;2.88;0.68;;;15.10;99.90;;;;;;5018969;28;20551;-77
2023/07/20 07:02:54;;;;;;;1.30;0.43;;;15.10;99.90;;;;;;5018644;28;20041;-77
2023/07/20 07:05:19;;;;;;;2.85;0.70;;;15.20;99.90;;;;;;5019281;28;20716;-78
2023/07/20 07:07:45;;;;;;;5.90;0.73;;;15.20;99.90;;;;;;5020772;28;20123;-78
2023/07/20 07:10:11;;;;;;;4.57;0.60;;;15.30;99.90;;;;;;5004196;28;20052;-78
2023/07/20 07:12:36;;;;;;;5.63;0.73;;;15.40;99.90;;;;;;5014550;28;20042;-77
2023/07/20 07:15:06;;;;;;;1.35;0.75;;;15.50;99.90;;;;;;5022505;28;20451;-77
2023/07/20 07:17:32;;;;;;;1.77;1.05;;;15.50;99.90;;;;;;5022020;28;20048;-77
2023/07/20 07:19:58;;;;;;;2.88;1.05;;;15.40;99.90;;;;;;5020238;28;20042;-78
2023/07/20 07:22:24;;;;;;;2.53;1.02;;;15.50;99.90;;;;;;5001703;28;20048;-78
2023/07/20 07:24:49;;;;;;;6.53;1.38;;;15.50;99.90;;;;;;5002407;28;20054;-78
2023/07/20 07:27:18;;;;;;;1.48;1.08;;;16.30;99.90;;;;;;5022104;28;20056;-76
2023/07/20 07:29:44;;;;;;;1.63;0.80;;;15.60;99.90;;;;;;4996037;28;20053;-77
2023/07/20 07:32:11;;;;;;;6.63;0.75;;;15.70;99.90;;;;;;5000225;28;20049;-77
2023/07/20 07:34:37;;;;;;;7.63;1.63;;;15.90;99.90;;;;;;5009397;28;20060;-78
2023/07/20 07:37:04;;;;;;;7.70;1.27;;;16.00;99.90;;;;;;5000415;28;20049;-77
2023/07/20 07:39:30;;;;;;;3.85;1.00;;;16.00;99.90;;;;;;5018847;28;20045;-77
2023/07/20 07:41:56;;;;;;;4.05;1.38;;;16.00;99.90;;;;;;5003576;28;20042;-77
2023/07/20 07:44:22;;;;;;;2.55;1.10;;;16.00;99.90;;;;;;5022528;28;20128;-77
2023/07/20 07:46:48;;;;;;;2.85;1.25;;;16.80;99.90;;;;;;5026405;28;20098;-76
2023/07/20 07:49:14;;;;;;;2.97;0.82;;;15.90;99.90;;;;;;5005614;28;20147;-77
2023/07/20 07:51:40;;;;;;;4.35;1.55;;;15.90;99.90;;;;;;5019123;28;20467;-78
2023/07/20 07:54:06;;;;;;;3.60;1.50;;;15.90;99.90;;;;;;5017973;28;20057;-78
2023/07/20 07:56:32;;;;;;;3.42;1.58;;;15.90;99.90;;;;;;5000852;28;20052;-78
2023/07/20 07:58:57;;;;;;;4.80;1.38;;;16.00;99.90;;;;;;5020326;28;20124;-78
2023/07/20 08:01:23;;;;;;;2.55;1.63;;;16.10;99.90;;;;;;5021935;28;20064;-79
2023/07/20 08:03:49;;;;;;;3.13;1.25;;;16.20;99.90;;;;;;5022146;28;20042;-76
2023/07/20 08:06:15;;;;;;;6.15;1.70;;;16.20;99.90;;;;;;5018020;28;20045;-77
2023/07/20 08:08:42;;;;;;;4.05;1.20;;;16.30;99.90;;;;;;5018525;28;20042;-77
2023/07/20 08:11:08;;;;;;;5.50;1.65;;;16.30;99.90;;;;;;5003944;28;20042;-77
2023/07/20 08:13:33;;;;;;;3.60;1.48;;;17.00;99.90;;;;;;5020296;28;20110;-77
2023/07/20 08:15:59;;;;;;;5.47;1.52;;;16.30;99.90;;;;;;5018753;28;20046;-77
2023/07/20 08:18:25;;;;;;;6.95;1.70;;;16.40;99.90;;;;;;5000450;28;20572;-77
2023/07/20 08:20:50;;;;;;;5.15;1.38;;;16.40;99.90;;;;;;5018871;28;20501;-78
2023/07/20 08:23:16;;;;;;;4.72;1.52;;;16.50;99.90;;;;;;5023778;28;20048;-78
2023/07/20 08:25:43;;;;;;;2.67;1.13;;;16.30;99.90;;;;;;5026596;28;20087;-77
2023/07/20 08:28:18;;;;;;;6.50;1.48;;;16.30;99.90;;;;;;5011129;28;20042;-77
2023/07/20 08:30:47;;;;;;;6.32;1.58;;;16.30;99.90;;;;;;5020198;28;20530;-77
2023/07/20 08:33:19;;;;;;;5.60;1.83;;;16.20;99.90;;;;;;4979305;28;20064;-76
2023/07/20 08:35:45;;;;;;;4.93;1.90;;;16.30;99.90;;;;;;5003536;28;20398;-77
2023/07/20 08:38:12;;;;;;;5.65;1.70;;;16.30;99.90;;;;;;5000691;28;20041;-78
2023/07/20 08:40:46;;;;;;;3.08;1.30;;;16.50;99.90;;;;;;5017206;28;20589;-79
2023/07/20 08:43:12;;;;;;;2.33;1.10;;;16.40;99.90;;;;;;5010057;28;20050;-77
2023/07/20 08:45:41;;;;;;;3.58;1.13;;;16.80;99.90;;;;;;5017482;28;20038;-78
2023/07/20 08:48:08;;;;;;;3.92;1.25;;;16.70;99.90;;;;;;5019521;28;20055;-77
2023/07/20 08:50:35;;;;;;;2.33;0.80;;;16.60;99.90;;;;;;5019914;28;20101;-78
2023/07/20 08:53:01;;;;;;;4.00;0.80;;;16.60;99.90;;;;;;5018401;28;20037;-78
2023/07/20 08:55:27;;;;;;;3.90;1.00;;;16.50;99.90;;;;;;5016134;28;20041;-78
2023/07/20 08:57:55;;;;;;;3.25;0.55;;;16.60;99.90;;;;;;5017489;28;20038;-77
2023/07/20 09:00:22;;;;;;;1.77;0.68;;;16.80;99.90;;;;;;5020305;28;20040;-78
2023/07/20 09:02:51;;;;;;;3.40;0.82;;;16.80;99.90;;;;;;5001988;28;20052;-79
2023/07/20 09:05:18;;;;;;;3.83;0.95;;;16.90;99.90;;;;;;5009653;28;20042;-78
2023/07/20 09:07:43;;;;;;;5.78;2.63;;;16.90;99.90;;;;;;5031771;28;20049;-77
2023/07/20 09:10:10;;;;;;;3.67;2.53;;;16.90;99.90;;;;;;5017135;28;20559;-77
2023/07/20 09:12:40;;;;;;;4.03;0.77;;;16.90;99.90;;;;;;5017127;28;20068;-76
2023/07/20 09:15:07;;;;;;;3.50;0.57;;;16.90;99.90;;;;;;5019173;28;20046;-78
2023/07/20 09:17:33;;;;;;;1.38;0.57;;;16.90;99.90;;;;;;5020509;28;20520;-77
2023/07/20 09:20:10;;;;;;;7.03;0.57;;;16.80;99.90;;;;;;5019898;28;20093;-78
2023/07/20 09:22:38;;;;;;;4.85;0.68;;;16.90;99.90;;;;;;4998757;28;20050;-77
2023/07/20 09:25:15;;;;;;;2.33;0.65;;;16.80;99.90;;;;;;5001928;28;20058;-77
2023/07/20 09:27:43;;;;;;;4.00;0.70;;;16.90;99.90;;;;;;5010452;28;20033;-79
2023/07/20 09:30:13;;;;;;;3.47;1.02;;;17.10;99.90;;;;;;5017299;28;20045;-78
2023/07/20 09:32:44;;;;;;;2.03;1.63;;;17.10;99.90;;;;;;5020973;28;20037;-77
2023/07/20 09:35:24;;;;;;;2.63;0.98;;;17.20;99.90;;;;;;5019155;28;20069;-76
2023/07/20 09:37:54;;;;;;;1.50;0.47;;;17.10;99.90;;;;;;5026415;28;20064;-79
2023/07/20 09:40:20;;;;;;;1.90;0.63;;;17.20;99.90;;;;;;5003247;28;20073;-78
2023/07/20 09:42:47;;;;;;;2.97;0.52;;;17.80;99.90;;;;;;5004124;28;20053;-78
2023/07/20 09:45:14;;;;;;;0.98;0.50;;;17.30;99.90;;;;;;5018264;28;20034;-76
2023/07/20 09:47:40;;;;;;;1.52;0.40;;;17.30;99.90;;;;;;5021412;28;20037;-78
2023/07/20 09:50:11;;;;;;;1.38;0.40;;;17.40;99.90;;;;;;5018496;28;20540;-78
2023/07/20 09:52:45;;;;;;;1.83;0.52;;;17.40;99.90;;;;;;5016490;28;20049;-77
2023/07/20 09:55:13;;;;;;;4.13;0.50;;;17.50;99.90;;;;;;5020533;28;20037;-79
2023/07/20 09:57:39;;;;;;;1.70;0.60;;;17.50;99.90;;;;;;5019969;28;20038;-80
2023/07/20 10:00:11;;;;;;;1.42;0.52;;;17.60;99.90;;;;;;5019708;28;20064;-80
2023/07/20 10:02:42;;;;;;;6.45;0.68;;;17.60;99.90;;;;;;5019270;28;20505;-78
2023/07/20 10:05:09;;;;;;;3.25;0.70;;;17.60;99.90;;;;;;5021436;28;20041;-79
2023/07/20 10:07:40;;;;;;;2.97;0.60;;;17.80;99.90;;;;;;5023722;28;20404;-79
2023/07/20 10:10:10;;;;;;;4.38;0.32;;;18.00;99.90;;;;;;5022931;28;20090;-80
2023/07/20 10:12:37;;;;;;;4.10;0.50;;;18.10;99.90;;;;;;5016359;28;20162;-80
2023/07/20 10:15:11;;;;;;;3.17;0.43;;;18.40;99.90;;;;;;5022994;28;20045;-79
2023/07/20 10:17:53;;;;;;;2.33;0.50;;;18.30;99.90;;;;;;5020735;28;20486;-79
2023/07/20 10:20:21;;;;;;;2.05;0.40;;;18.40;99.90;;;;;;5021683;28;20048;-78
2023/07/20 10:22:49;;;;;;;3.80;0.82;;;18.30;99.90;;;;;;5023610;28;20485;-80
2023/07/20 10:25:16;;;;;;;1.92;0.50;;;18.30;99.90;;;;;;5023074;28;20053;-79
2023/07/20 10:27:44;;;;;;;5.88;0.52;;;18.30;99.90;;;;;;5020449;28;20471;-78
2023/07/20 10:30:10;;;;;;;2.15;0.40;;;18.30;99.90;;;;;;5030928;28;20594;-80
2023/07/20 10:32:36;;;;;;;2.40;0.15;;;18.20;99.90;;;;;;5020232;28;20126;-78
2023/07/20 10:35:12;;;;;;;1.27;0.43;;;18.30;99.90;;;;;;5020313;28;20053;-79
2023/07/20 10:38:04;;;;;;;2.80;0.63;;;18.40;99.90;;;;;;4995822;28;20037;-78
2023/07/20 10:40:37;;;;;;;0.90;0.32;;;18.40;99.90;;;;;;5016912;28;20060;-78
2023/07/20 10:43:07;;;;;;;1.58;0.60;;;18.40;99.90;;;;;;5020458;28;20041;-80
2023/07/20 10:45:50;;;;;;;3.65;0.65;;;18.40;99.90;;;;;;4984337;28;20041;-78
2023/07/20 10:48:20;;;;;;;0.60;0.25;;;18.40;99.90;;;;;;5002752;28;20049;-77
2023/07/20 10:51:11;;;;;;;3.55;0.30;;;18.40;99.90;;;;;;5003568;28;20055;-78
2023/07/20 10:53:36;;;;;;;2.47;0.60;;;18.30;99.90;;;;;;5012740;28;20033;-77
2023/07/20 10:56:31;;;;;;;1.00;0.35;;;18.40;99.90;;;;;;5019691;28;20049;-78
2023/07/20 10:59:03;;;;;;;1.50;0.43;;;18.40;99.90;;;;;;5014138;28;20042;-77
2023/07/20 11:01:30;;;;;;;1.25;0.50;;;18.40;99.90;;;;;;5005019;28;20099;-79
2023/07/20 11:04:02;;;;;;;1.45;0.60;;;18.40;99.90;;;;;;5024390;28;20113;-78
2023/07/20 11:06:27;;;;;;;2.38;0.63;;;18.40;99.90;;;;;;5027893;28;20125;-78
2023/07/20 11:09:16;;;;;;;0.80;0.60;;;18.50;99.90;;;;;;5004953;28;20073;-79
2023/07/20 11:11:42;;;;;;;3.28;0.50;;;18.40;99.90;;;;;;5012431;28;20109;-78
2023/07/20 11:14:25;;;;;;;2.85;0.80;;;18.50;99.90;;;;;;5019232;28;20056;-79
2023/07/20 11:16:52;;;;;;;5.10;0.65;;;18.70;99.90;;;;;;4994721;28;20038;-78
2023/07/20 11:19:18;;;;;;;2.80;1.00;;;18.80;99.90;;;;;;5020526;28;20151;-78
2023/07/20 11:21:45;;;;;;;2.65;1.98;;;18.90;99.90;;;;;;5022675;28;20516;-78
2023/07/20 11:24:13;;;;;;;3.25;0.50;;;19.00;99.90;;;;;;5025190;28;20064;-78
2023/07/20 11:26:42;;;;;;;1.88;0.57;;;19.10;99.90;;;;;;5017091;28;20080;-79
2023/07/20 11:29:08;;;;;;;2.17;0.60;;;19.10;99.90;;;;;;5003561;28;20053;-77
2023/07/20 11:31:41;;;;;;;1.48;0.63;;;19.20;99.90;;;;;;5019736;28;20128;-77
2023/07/20 11:34:14;;;;;;;3.40;0.80;;;19.20;99.90;;;;;;5019475;28;20120;-78
2023/07/20 11:36:42;;;;;;;1.40;0.38;;;19.20;99.90;;;;;;5011064;28;20038;-79
2023/07/20 11:39:12;;;;;;;2.10;0.57;;;19.30;99.90;;;;;;5018426;28;20050;-79
2023/07/20 11:41:38;;;;;;;1.75;0.55;;;19.20;99.90;;;;;;5008415;28;20029;-78
2023/07/20 11:44:06;;;;;;;4.40;1.13;;;19.10;99.90;;;;;;5021660;28;20075;-77
2023/07/20 11:46:32;;;;;;;2.55;0.50;;;19.10;99.90;;;;;;5002506;28;20092;-78
2023/07/20 11:49:01;;;;;;;2.33;1.00;;;19.10;99.90;;;;;;5001651;28;20038;-79
2023/07/20 11:51:30;;;;;;;3.58;0.60;;;19.00;99.90;;;;;;5019159;28;20511;-78
2023/07/20 11:53:57;;;;;;;2.55;0.73;;;19.00;99.90;;;;;;5022788;28;20064;-79
2023/07/20 11:56:27;;;;;;;1.08;0.52;;;18.90;99.90;;;;;;5020886;28;20091;-79
2023/07/20 11:59:00;;;;;;;1.98;0.68;;;18.90;99.90;;;;;;4982263;28;20038;-78
2023/07/20 12:01:31;;;;;;;1.20;0.60;;;18.20;99.90;;;;;;5017816;28;20053;-79
2023/07/20 12:03:57;;;;;;;2.20;0.80;;;18.90;99.90;;;;;;5022261;28;20033;-78
2023/07/20 12:06:27;;;;;;;6.00;3.05;;;18.90;99.90;;;;;;5020304;28;20069;-77
2023/07/20 12:08:57;;;;;;;1.95;0.90;;;18.90;99.90;;;;;;5000313;28;20045;-80
2023/07/20 12:11:38;;;;;;;1.17;0.63;;;19.00;99.90;;;;;;5025620;28;20081;-79
2023/07/20 12:14:08;;;;;;;1.60;0.85;;;19.10;99.90;;;;;;5018101;28;20038;-78
2023/07/20 12:16:35;;;;;;;2.92;0.73;;;19.20;99.90;;;;;;5020316;28;20057;-78
2023/07/20 12:19:03;;;;;;;2.58;1.02;;;19.30;99.90;;;;;;5015035;28;20042;-80
2023/07/20 12:21:30;;;;;;;2.20;1.08;;;19.40;99.90;;;;;;5019116;28;20041;-79
2023/07/20 12:23:59;;;;;;;1.92;0.60;;;19.50;99.90;;;;;;5016686;28;20061;-78
2023/07/20 12:26:26;;;;;;;2.83;0.70;;;19.60;99.90;;;;;;5016855;28;20097;-78
2023/07/20 12:28:52;;;;;;;2.28;0.75;;;19.60;99.90;;;;;;5020706;28;20073;-78
2023/07/20 12:31:18;;;;;;;2.15;0.40;;;19.40;99.90;;;;;;5021712;28;20073;-80
2023/07/20 12:33:44;;;;;;;2.72;1.95;;;19.30;99.90;;;;;;4999711;28;20104;-79
2023/07/20 12:36:10;;;;;;;3.63;1.40;;;19.10;99.90;;;;;;5019065;28;20262;-76
2023/07/20 12:38:36;;;;;;;4.88;0.93;;;18.90;99.90;;;;;;5027177;28;20042;-81
2023/07/20 12:41:02;;;;;;;5.72;0.85;;;18.80;99.90;;;;;;5029605;28;20038;-78
2023/07/20 12:43:29;;;;;;;2.95;0.95;;;18.70;99.90;;;;;;5011643;28;20033;-77
2023/07/20 12:45:56;;;;;;;3.80;0.60;;;18.70;99.90;;;;;;5025636;28;20149;-78
2023/07/20 12:48:22;;;;;;;2.40;1.00;;;18.70;99.90;;;;;;5028388;28;20077;-78
2023/07/20 12:50:48;;;;;;;1.10;0.63;;;18.90;99.90;;;;;;5027738;28;20048;-79